Hauptseite
METAR-TAF:

METAR-TAF

Flughäfen :

Xi’an, China

Flughafen Xi’an-Xianyang

Breite: 34-26N, Länge: 108-45E, Höhe: 479 m

Beobachtung

Neuester Wetterbericht von vor 32 Minuten, um 16:00 UTC
Wind 2 kt aus unterschiedlichen Richtungen
Temperatur -8°C
Luftfeuchtigkeit 67%
Luftdruck 1038 hPa
Sichtweite 10 km oder mehr
keine Wolken unter 1500 m und keine Kumulonimbus oder Gewitterwolken

METAR: ZLXY 181600Z VRB01MPS CAVOK M08/M13 Q1038 NOSIG

Zeit: 00:32 (16:32 UTC)

Prognose

Neuester Wetterbericht von vor 7 Stunden und 27 Minuten, um 09:05 UTC
Gültige Prognose vom 18 um 12 UTC bis 19 um 12 UTC
Wind 6 kt aus West/Südwest
Sichtweite: 3000 m
trockener Dunst

TAF: ZLXY 180905Z 1812/1912 24003MPS 3000 HZ NSC TX10/1907Z TNM09/23Z

Wetterbeobachtungen und Prognosen von mehr als 4000 Flughäfen (METAR und TAF Bericht).

Die verfügbaren Stationen werden durch gelbe und rote Markierungen auf der Karte dargestellt.

Führen Sie die Maus auf sie, um den Namen der Station zu sehen.

Darauf klicken, um die Beobachtung von Wetterbeobachtungen und Prognosen zu sehen.

Um die Karte zu ändern : klicken Sie auf den grünen Tasten mit einem schwarzen Kreuz Zum Vergrößern, auf den grünen Button mit einem Gedankenstrich zu verkleinern, oder auf die grünen Pfeile für benachbarte Karten.


METAR-TAF: